createdAt,value
2022-08-22T00:01:32.849Z,22.70
2022-08-22T00:04:15.328Z,22.60
2022-08-22T00:06:56.518Z,22.60
2022-08-22T00:09:34.511Z,22.60
2022-08-22T00:12:21.408Z,22.50
2022-08-22T00:14:56.473Z,22.50
2022-08-22T00:17:35.040Z,22.50
2022-08-22T00:20:04.819Z,22.40
2022-08-22T00:22:42.518Z,22.40
2022-08-22T00:25:33.136Z,22.40
2022-08-22T00:28:11.884Z,22.30
2022-08-22T00:30:51.992Z,22.30
2022-08-22T00:33:27.582Z,22.20
2022-08-22T00:36:07.486Z,22.20
2022-08-22T00:38:42.443Z,22.20
2022-08-22T00:41:42.640Z,22.20
2022-08-22T00:44:09.304Z,22.10
2022-08-22T00:46:42.188Z,22.00
2022-08-22T00:49:29.103Z,22.00
2022-08-22T00:52:06.740Z,22.00
2022-08-22T00:54:55.684Z,21.90
2022-08-22T00:57:28.115Z,21.90
2022-08-22T01:00:19.965Z,21.90
2022-08-22T01:03:23.956Z,21.80
2022-08-22T01:05:59.547Z,21.80
2022-08-22T01:08:50.979Z,21.80
2022-08-22T01:11:57.343Z,21.70
2022-08-22T01:14:34.607Z,21.70
2022-08-22T01:17:16.807Z,21.70
2022-08-22T01:20:20.904Z,21.70
2022-08-22T01:23:22.229Z,21.60
2022-08-22T01:26:13.036Z,21.60
2022-08-22T01:29:11.782Z,21.60
2022-08-22T01:32:05.472Z,21.60
2022-08-22T01:34:53.956Z,21.50
2022-08-22T01:37:45.277Z,21.50
2022-08-22T01:40:29.568Z,21.50
2022-08-22T01:43:17.196Z,21.50
2022-08-22T01:46:29.453Z,21.50
2022-08-22T01:49:09.637Z,21.40
2022-08-22T01:52:06.921Z,21.40
2022-08-22T01:54:42.881Z,21.40
2022-08-22T01:57:10.992Z,21.40
2022-08-22T01:59:50.797Z,21.40
2022-08-22T02:02:43.643Z,21.30
2022-08-22T02:05:13.167Z,21.30
2022-08-22T02:07:51.956Z,21.30
2022-08-22T02:10:44.915Z,21.30
2022-08-22T02:13:14.530Z,21.20
2022-08-22T02:15:41.179Z,21.20
2022-08-22T02:18:22.954Z,21.20
2022-08-22T02:21:08.785Z,21.20
2022-08-22T02:23:57.711Z,21.20
2022-08-22T02:27:04.178Z,21.20
2022-08-22T02:29:46.298Z,21.10
2022-08-22T02:32:42.032Z,21.10
2022-08-22T02:35:46.837Z,21.10
2022-08-22T02:38:24.025Z,21.10
2022-08-22T02:41:02.861Z,21.00
2022-08-22T02:43:39.438Z,21.00
2022-08-22T02:46:38.275Z,21.00
2022-08-22T02:49:29.505Z,21.00
2022-08-22T02:52:37.201Z,21.00
2022-08-22T02:55:14.249Z,20.90
2022-08-22T02:57:52.367Z,20.90
2022-08-22T03:00:30.709Z,20.90
2022-08-22T03:02:59.605Z,20.90
2022-08-22T03:05:37.567Z,20.90
2022-08-22T03:08:23.324Z,20.90
2022-08-22T03:11:26.283Z,20.80
2022-08-22T03:14:18.763Z,20.80
2022-08-22T03:17:17.686Z,20.80
2022-08-22T03:20:13.774Z,20.80
2022-08-22T03:23:02.205Z,20.70
2022-08-22T03:25:35.006Z,20.70
2022-08-22T03:28:10.092Z,20.70
2022-08-22T03:31:15.561Z,20.60
2022-08-22T03:33:43.226Z,20.70
2022-08-22T03:36:15.685Z,20.60
2022-08-22T03:39:17.387Z,20.60
2022-08-22T03:42:03.142Z,20.60
2022-08-22T03:44:51.858Z,20.60
2022-08-22T03:47:18.430Z,20.60
2022-08-22T03:50:20.910Z,20.50
2022-08-22T03:53:18.991Z,20.50
2022-08-22T03:55:46.011Z,20.50
2022-08-22T03:58:33.511Z,20.60
2022-08-22T04:01:19.350Z,20.50
2022-08-22T04:04:04.806Z,20.40
2022-08-22T04:06:48.315Z,20.40
2022-08-22T04:09:30.021Z,20.40
2022-08-22T04:12:31.852Z,20.40
2022-08-22T04:15:04.342Z,20.40
2022-08-22T04:18:08.964Z,20.30
2022-08-22T04:20:56.650Z,20.30
2022-08-22T04:23:45.004Z,20.30
2022-08-22T04:26:29.292Z,20.30
2022-08-22T04:29:08.154Z,20.30
2022-08-22T04:31:46.377Z,20.30
2022-08-22T04:34:31.879Z,20.30
2022-08-22T04:37:09.718Z,20.30
2022-08-22T04:39:53.715Z,20.30
2022-08-22T04:42:34.899Z,20.30
2022-08-22T04:45:30.971Z,20.30
2022-08-22T04:48:33.547Z,20.30
2022-08-22T04:51:26.291Z,20.30
2022-08-22T04:54:25.362Z,20.30
2022-08-22T04:56:55.152Z,20.30
2022-08-22T04:59:24.863Z,20.30
2022-08-22T05:01:57.606Z,20.30
2022-08-22T05:04:35.298Z,20.30
2022-08-22T05:07:18.037Z,20.30
2022-08-22T05:09:52.575Z,20.30
2022-08-22T05:12:29.285Z,20.30
2022-08-22T05:15:04.211Z,20.30
2022-08-22T05:17:34.389Z,20.40
2022-08-22T05:20:08.619Z,20.40
2022-08-22T05:22:41.255Z,20.40
2022-08-22T05:25:20.332Z,20.40
2022-08-22T05:27:57.163Z,20.40
2022-08-22T05:30:28.245Z,20.50
2022-08-22T05:33:26.700Z,20.50
2022-08-22T05:35:59.056Z,20.50
2022-08-22T05:38:33.890Z,20.50
2022-08-22T05:41:09.973Z,20.60
2022-08-22T05:43:40.596Z,20.60
2022-08-22T05:46:15.901Z,20.60
2022-08-22T05:49:00.116Z,20.60
2022-08-22T05:51:54.643Z,20.70
2022-08-22T05:54:34.532Z,20.70
2022-08-22T05:57:20.689Z,20.80
2022-08-22T05:59:50.907Z,20.90
2022-08-22T06:02:22.570Z,20.90
2022-08-22T06:04:54.670Z,21.00
2022-08-22T06:07:35.963Z,21.10
2022-08-22T06:10:23.144Z,21.20
2022-08-22T06:13:01.956Z,21.30
2022-08-22T06:15:45.516Z,21.40
2022-08-22T06:18:21.014Z,21.50
2022-08-22T06:21:09.896Z,21.60
2022-08-22T06:23:38.985Z,21.70
2022-08-22T06:26:06.745Z,21.80
2022-08-22T06:28:55.385Z,21.80
2022-08-22T06:31:27.767Z,21.90
2022-08-22T06:34:22.906Z,22.00
2022-08-22T06:36:51.634Z,22.10
2022-08-22T06:39:33.973Z,22.20
2022-08-22T06:42:23.045Z,22.30
2022-08-22T06:45:06.965Z,22.40
2022-08-22T06:47:43.470Z,22.50
2022-08-22T06:50:31.777Z,22.60
2022-08-22T06:53:07.773Z,22.80
2022-08-22T06:55:35.898Z,23.00
2022-08-22T06:58:07.033Z,23.20
2022-08-22T07:00:35.281Z,23.40
2022-08-22T07:03:13.598Z,23.60
2022-08-22T07:05:42.739Z,23.90
2022-08-22T07:08:20.106Z,24.20
2022-08-22T07:11:06.192Z,24.50
2022-08-22T07:13:36.982Z,24.90
2022-08-22T07:16:08.058Z,25.20
2022-08-22T07:18:44.994Z,25.50
2022-08-22T07:21:11.705Z,25.70
2022-08-22T07:23:44.405Z,25.90
2022-08-22T07:26:31.470Z,26.10
2022-08-22T07:29:40.379Z,26.30
2022-08-22T07:32:22.495Z,26.40
2022-08-22T07:35:04.350Z,26.40
2022-08-22T07:37:49.982Z,26.40
2022-08-22T07:40:27.270Z,26.50
2022-08-22T07:42:53.866Z,26.60
2022-08-22T07:45:37.683Z,26.60
2022-08-22T07:48:26.274Z,26.70
2022-08-22T07:51:14.715Z,26.80
2022-08-22T07:53:44.963Z,26.80
2022-08-22T07:56:42.211Z,26.80
2022-08-22T07:59:17.967Z,26.70
2022-08-22T08:01:48.266Z,26.70
2022-08-22T08:04:20.651Z,26.60
2022-08-22T08:06:52.604Z,26.60
2022-08-22T08:09:20.204Z,26.50
2022-08-22T08:11:51.708Z,26.40
2022-08-22T08:14:21.752Z,26.40
2022-08-22T08:17:19.006Z,26.40
2022-08-22T08:19:47.285Z,26.40
2022-08-22T08:22:25.914Z,26.40
2022-08-22T08:24:55.803Z,26.40
2022-08-22T08:27:44.752Z,26.40
2022-08-22T08:30:35.261Z,26.50
2022-08-22T08:33:25.692Z,26.50
2022-08-22T08:36:04.112Z,26.60
2022-08-22T08:38:48.548Z,26.70
2022-08-22T08:41:45.558Z,26.70
2022-08-22T08:44:37.803Z,26.80
2022-08-22T08:47:23.622Z,26.90
2022-08-22T08:50:09.574Z,27.00
2022-08-22T08:53:11.005Z,27.20
2022-08-22T08:56:01.895Z,27.30
2022-08-22T08:58:40.298Z,27.40
2022-08-22T09:01:16.409Z,27.40
2022-08-22T09:04:17.202Z,27.50
2022-08-22T09:06:58.691Z,27.60
2022-08-22T09:09:37.258Z,27.60
2022-08-22T09:12:56.128Z,27.70
2022-08-22T09:18:40.845Z,27.90
2022-08-22T09:21:45.466Z,28.00
2022-08-22T09:24:39.846Z,28.00
2022-08-22T09:27:37.833Z,28.10
2022-08-22T09:30:15.458Z,28.10
2022-08-22T09:33:03.994Z,28.20
2022-08-22T09:36:18.369Z,28.20
2022-08-22T09:38:53.794Z,28.30
2022-08-22T09:40:16.501Z,27.80
2022-08-22T09:41:48.030Z,28.40
2022-08-22T09:44:39.702Z,28.50
2022-08-22T09:47:24.577Z,28.60
2022-08-22T09:50:12.279Z,28.70
2022-08-22T09:52:47.526Z,28.90
2022-08-22T09:55:40.337Z,29.10
2022-08-22T09:58:45.743Z,29.20
2022-08-22T10:01:18.306Z,29.40
2022-08-22T10:04:10.657Z,29.50
2022-08-22T10:07:08.559Z,29.70
2022-08-22T10:10:01.215Z,29.80
2022-08-22T10:12:36.092Z,29.90
2022-08-22T10:15:20.267Z,30.10
2022-08-22T10:18:26.182Z,30.30
2022-08-22T10:21:39.686Z,30.40
2022-08-22T10:24:30.910Z,30.70
2022-08-22T10:27:03.662Z,30.90
2022-08-22T10:29:50.853Z,31.20
2022-08-22T10:32:54.218Z,31.40
2022-08-22T10:35:28.529Z,31.70
2022-08-22T10:38:19.000Z,31.90
2022-08-22T10:40:53.252Z,32.20
2022-08-22T10:43:36.404Z,32.40
2022-08-22T10:46:33.124Z,32.50
2022-08-22T10:49:15.380Z,32.70
2022-08-22T10:52:14.710Z,32.80
2022-08-22T10:54:51.345Z,32.80
2022-08-22T10:57:42.945Z,32.80
2022-08-22T11:00:22.672Z,32.80
2022-08-22T11:03:18.681Z,32.80
2022-08-22T11:05:52.101Z,32.80
2022-08-22T11:08:45.317Z,32.80
2022-08-22T11:11:32.666Z,32.80
2022-08-22T11:14:11.973Z,32.70
2022-08-22T11:16:56.140Z,32.70
2022-08-22T11:19:40.581Z,32.70
2022-08-22T11:22:31.830Z,32.70
2022-08-22T11:25:38.791Z,32.50
2022-08-22T11:28:48.255Z,32.40
2022-08-22T11:31:23.606Z,32.30
2022-08-22T11:34:03.403Z,32.20
2022-08-22T11:36:50.381Z,32.00
2022-08-22T11:39:45.079Z,31.90
2022-08-22T11:42:32.503Z,31.80
2022-08-22T11:45:01.645Z,31.70
2022-08-22T11:47:36.746Z,31.70
2022-08-22T11:50:21.448Z,31.70
2022-08-22T11:53:18.584Z,31.60
2022-08-22T11:56:00.260Z,31.60
2022-08-22T11:59:09.648Z,31.50
2022-08-22T12:01:48.834Z,31.50
2022-08-22T12:04:37.234Z,31.50
2022-08-22T12:07:26.951Z,31.50
2022-08-22T12:10:17.199Z,31.40
2022-08-22T12:13:02.253Z,31.50
2022-08-22T12:15:34.157Z,31.50
2022-08-22T12:18:25.294Z,31.50
2022-08-22T12:21:16.098Z,31.50
2022-08-22T12:23:52.208Z,31.60
2022-08-22T12:26:24.799Z,31.60
2022-08-22T12:29:15.463Z,31.70
2022-08-22T12:32:26.288Z,31.70
2022-08-22T12:35:00.732Z,31.80
2022-08-22T12:37:37.215Z,31.90
2022-08-22T12:40:56.861Z,31.90
2022-08-22T12:43:32.422Z,31.80
2022-08-22T12:46:46.775Z,31.80
2022-08-22T12:49:38.484Z,31.70
2022-08-22T12:52:10.989Z,31.70
2022-08-22T12:54:58.153Z,31.70
2022-08-22T12:57:42.878Z,31.70
2022-08-22T13:00:45.258Z,31.70
2022-08-22T13:03:34.482Z,31.60
2022-08-22T13:06:26.270Z,31.60
2022-08-22T13:08:54.350Z,31.60
2022-08-22T13:11:23.745Z,31.50
2022-08-22T13:13:58.715Z,31.50
2022-08-22T13:16:36.977Z,31.40
2022-08-22T13:19:13.577Z,31.40
2022-08-22T13:21:59.571Z,31.50
2022-08-22T13:24:52.287Z,31.40
2022-08-22T13:27:33.876Z,31.40
2022-08-22T13:30:12.426Z,31.50
2022-08-22T13:32:44.513Z,31.50
2022-08-22T13:35:30.296Z,31.50
2022-08-22T13:38:12.312Z,31.60
2022-08-22T13:40:44.556Z,31.60
2022-08-22T13:43:23.615Z,31.60
2022-08-22T13:45:56.000Z,31.70
2022-08-22T13:48:28.671Z,31.70
2022-08-22T13:51:18.489Z,31.80
2022-08-22T13:54:00.883Z,31.80
2022-08-22T13:56:39.010Z,31.90
2022-08-22T13:59:49.503Z,31.90
2022-08-22T14:02:38.806Z,31.90
2022-08-22T14:05:17.387Z,31.90
2022-08-22T14:08:02.986Z,32.00
2022-08-22T14:10:34.455Z,32.00
2022-08-22T14:13:01.076Z,32.00
2022-08-22T14:15:44.743Z,32.00
2022-08-22T14:18:45.518Z,32.00
2022-08-22T14:21:41.285Z,32.00
2022-08-22T14:24:13.774Z,32.00
2022-08-22T14:27:12.598Z,32.00
2022-08-22T14:29:54.329Z,32.10
2022-08-22T14:32:22.620Z,32.10
2022-08-22T14:35:00.501Z,32.20
2022-08-22T14:37:35.234Z,32.20
2022-08-22T14:40:29.577Z,32.20
2022-08-22T14:43:00.377Z,32.20
2022-08-22T14:45:33.053Z,32.20
2022-08-22T14:48:14.178Z,32.20
2022-08-22T14:51:09.993Z,32.20
2022-08-22T14:53:40.063Z,32.20
2022-08-22T14:56:29.239Z,32.20
2022-08-22T14:59:04.327Z,32.20
2022-08-22T15:01:34.996Z,32.10
2022-08-22T15:04:07.686Z,32.10
2022-08-22T15:06:39.475Z,32.00
2022-08-22T15:09:55.921Z,32.00
2022-08-22T15:12:49.417Z,32.00
2022-08-22T15:15:49.302Z,31.90
2022-08-22T15:18:35.342Z,31.90
2022-08-22T15:21:08.606Z,31.80
2022-08-22T15:23:45.429Z,31.70
2022-08-22T15:26:24.665Z,31.70
2022-08-22T15:29:15.189Z,31.70
2022-08-22T15:31:44.922Z,31.60
2022-08-22T15:34:23.998Z,31.50
2022-08-22T15:37:17.785Z,31.50
2022-08-22T15:40:02.848Z,31.40
2022-08-22T15:42:40.972Z,31.40
2022-08-22T15:45:34.745Z,31.30
2022-08-22T15:48:07.558Z,31.30
2022-08-22T15:51:00.425Z,31.20
2022-08-22T15:53:55.098Z,31.20
2022-08-22T15:56:28.214Z,31.20
2022-08-22T15:59:25.988Z,31.10
2022-08-22T16:02:01.102Z,31.10
2022-08-22T16:04:36.074Z,31.10
2022-08-22T16:07:19.262Z,31.00
2022-08-22T16:09:50.022Z,30.90
2022-08-22T16:12:40.824Z,30.80
2022-08-22T16:15:46.136Z,30.80
2022-08-22T16:18:34.448Z,30.70
2022-08-22T16:21:02.941Z,30.70
2022-08-22T16:23:49.629Z,30.60
2022-08-22T16:26:31.291Z,30.60
2022-08-22T16:29:12.385Z,30.50
2022-08-22T16:31:44.605Z,30.50
2022-08-22T16:34:20.302Z,30.50
2022-08-22T16:37:17.970Z,30.50
2022-08-22T16:39:52.245Z,30.40
2022-08-22T16:42:21.707Z,30.40
2022-08-22T16:45:05.530Z,30.40
2022-08-22T16:47:36.218Z,30.30
2022-08-22T16:50:24.206Z,30.30
2022-08-22T16:53:14.643Z,30.30
2022-08-22T16:55:45.125Z,30.20
2022-08-22T16:58:50.245Z,30.10
2022-08-22T17:01:42.817Z,30.10
2022-08-22T17:04:26.673Z,30.10
2022-08-22T17:07:04.276Z,30.00
2022-08-22T17:09:44.068Z,30.00
2022-08-22T17:12:39.078Z,30.00
2022-08-22T17:15:29.350Z,29.90
2022-08-22T17:18:25.467Z,29.90
2022-08-22T17:21:01.339Z,29.80
2022-08-22T17:23:37.230Z,29.80
2022-08-22T17:26:27.965Z,29.70
2022-08-22T17:29:04.436Z,29.70
2022-08-22T17:31:53.908Z,29.70
2022-08-22T17:34:47.304Z,29.60
2022-08-22T17:37:30.499Z,29.60
2022-08-22T17:40:24.174Z,29.50
2022-08-22T17:43:26.911Z,29.50
2022-08-22T17:45:56.579Z,29.40
2022-08-22T17:48:38.688Z,29.40
2022-08-22T17:51:28.274Z,29.40
2022-08-22T17:54:14.475Z,29.40
2022-08-22T17:57:05.434Z,29.30
2022-08-22T17:59:46.618Z,29.20
2022-08-22T18:02:19.060Z,29.20
2022-08-22T18:04:59.045Z,29.10
2022-08-22T18:07:48.846Z,29.10
2022-08-22T18:10:15.517Z,29.00
2022-08-22T18:13:06.904Z,29.00
2022-08-22T18:15:58.587Z,29.00
2022-08-22T18:18:45.496Z,28.90
2022-08-22T18:22:05.258Z,28.90
2022-08-22T18:24:48.797Z,28.80
2022-08-22T18:27:44.167Z,28.80
2022-08-22T18:30:13.597Z,28.70
2022-08-22T18:32:53.899Z,28.70
2022-08-22T18:35:27.472Z,28.60
2022-08-22T18:38:19.515Z,28.50
2022-08-22T18:40:56.653Z,28.50
2022-08-22T18:43:35.716Z,28.40
2022-08-22T18:46:23.910Z,28.40
2022-08-22T18:49:14.161Z,28.30
2022-08-22T18:51:38.763Z,28.20
2022-08-22T18:54:05.542Z,28.20
2022-08-22T18:56:49.685Z,28.10
2022-08-22T18:59:41.288Z,28.10
2022-08-22T19:02:22.234Z,28.00
2022-08-22T19:05:19.555Z,27.90
2022-08-22T19:08:07.013Z,27.90
2022-08-22T19:10:42.300Z,27.80
2022-08-22T19:13:49.156Z,27.70
2022-08-22T19:16:25.467Z,27.70
2022-08-22T19:18:59.414Z,27.60
2022-08-22T19:21:49.389Z,27.60
2022-08-22T19:24:29.608Z,27.50
2022-08-22T19:27:25.625Z,27.50
2022-08-22T19:30:02.187Z,27.40
2022-08-22T19:32:44.240Z,27.40
2022-08-22T19:35:23.810Z,27.30
2022-08-22T19:37:57.528Z,27.20
2022-08-22T19:40:46.075Z,27.20
2022-08-22T19:43:28.170Z,27.10
2022-08-22T19:45:55.977Z,27.10
2022-08-22T19:48:45.835Z,27.10
2022-08-22T19:51:21.715Z,27.00
2022-08-22T19:53:57.336Z,26.90
2022-08-22T19:57:00.353Z,26.90
2022-08-22T20:00:00.064Z,26.90
2022-08-22T20:02:49.778Z,26.80
2022-08-22T20:05:20.483Z,26.80
2022-08-22T20:08:13.415Z,26.80
2022-08-22T20:11:21.781Z,26.70
2022-08-22T20:13:49.773Z,26.70
2022-08-22T20:16:23.299Z,26.60
2022-08-22T20:19:02.014Z,26.50
2022-08-22T20:21:58.256Z,26.50
2022-08-22T20:24:40.064Z,26.40
2022-08-22T20:27:21.863Z,26.40
2022-08-22T20:29:54.147Z,26.30
2022-08-22T20:32:23.734Z,26.30
2022-08-22T20:34:55.198Z,26.30
2022-08-22T20:39:44.861Z,26.20
2022-08-22T20:42:15.323Z,26.10
2022-08-22T20:44:44.947Z,26.10
2022-08-22T20:47:23.852Z,26.10
2022-08-22T20:50:07.559Z,26.00
2022-08-22T20:52:37.591Z,26.00
2022-08-22T20:55:06.826Z,25.90
2022-08-22T20:57:35.309Z,25.90
2022-08-22T21:00:13.213Z,25.90
2022-08-22T21:02:51.561Z,25.90
2022-08-22T21:05:22.460Z,25.90
2022-08-22T21:08:04.448Z,25.80
2022-08-22T21:10:53.641Z,25.80
2022-08-22T21:13:25.957Z,25.70
2022-08-22T21:15:59.270Z,25.70
2022-08-22T21:18:35.018Z,25.70
2022-08-22T21:21:18.186Z,25.70
2022-08-22T21:23:58.622Z,25.70
2022-08-22T21:26:38.389Z,25.70
2022-08-22T21:29:13.739Z,25.60
2022-08-22T21:31:45.556Z,25.60
2022-08-22T21:34:24.600Z,25.60
2022-08-22T21:36:54.145Z,25.60
2022-08-22T21:39:24.341Z,25.50
2022-08-22T21:41:59.394Z,25.50
2022-08-22T21:44:31.773Z,25.50
2022-08-22T21:47:14.534Z,25.50
2022-08-22T21:50:02.789Z,25.50
2022-08-22T21:52:34.929Z,25.40
2022-08-22T21:55:20.451Z,25.40
2022-08-22T21:57:47.547Z,25.50
2022-08-22T22:00:52.042Z,25.50
2022-08-22T22:03:43.330Z,25.40
2022-08-22T22:06:11.203Z,25.40
2022-08-22T22:08:37.863Z,25.40
2022-08-22T22:11:08.400Z,25.40
2022-08-22T22:13:36.321Z,25.40
2022-08-22T22:16:03.361Z,25.40
2022-08-22T22:18:32.659Z,25.30
2022-08-22T22:21:00.053Z,25.30
2022-08-22T22:23:27.314Z,25.30
2022-08-22T22:25:56.334Z,25.30
2022-08-22T22:28:28.515Z,25.30
2022-08-22T22:30:55.287Z,25.30
2022-08-22T22:33:31.441Z,25.20
2022-08-22T22:36:03.937Z,25.20
2022-08-22T22:38:30.799Z,25.20
2022-08-22T22:40:57.573Z,25.20
2022-08-22T22:43:25.852Z,25.20
2022-08-22T22:45:52.560Z,25.20
2022-08-22T22:48:24.158Z,25.20
2022-08-22T22:50:52.888Z,25.20
2022-08-22T22:53:21.467Z,25.20
2022-08-22T22:56:06.723Z,25.20
2022-08-22T22:58:35.389Z,25.20
2022-08-22T23:01:18.686Z,25.20
2022-08-22T23:03:46.485Z,25.10
2022-08-22T23:06:16.155Z,25.10
2022-08-22T23:08:43.200Z,25.10
2022-08-22T23:11:18.816Z,25.10
2022-08-22T23:13:46.245Z,25.10
2022-08-22T23:16:16.815Z,25.00
2022-08-22T23:18:44.552Z,25.10
2022-08-22T23:21:12.950Z,25.00
2022-08-22T23:23:39.981Z,25.00
2022-08-22T23:26:06.832Z,25.00
2022-08-22T23:28:33.571Z,25.00
2022-08-22T23:31:32.155Z,25.00
2022-08-22T23:34:06.782Z,25.00
2022-08-22T23:36:33.921Z,25.00
2022-08-22T23:39:00.766Z,25.00
2022-08-22T23:41:27.432Z,24.90
2022-08-22T23:43:55.330Z,24.90
2022-08-22T23:46:24.221Z,24.90
2022-08-22T23:48:51.053Z,24.80
2022-08-22T23:51:22.955Z,24.80
2022-08-22T23:53:50.352Z,24.80
2022-08-22T23:56:38.508Z,24.70
2022-08-22T23:59:10.356Z,24.70
